Terminal Aerodrome Forecast
Issued by NWS Sioux Falls, SD

Home | Current Version | Previous Version | Text Only | Print | Product List | Glossary On
Versions: 1 2 3 4 5 6 7 8 9 10 11 12 13 14 15 16 17 18 19 20
000
FTUS43 KFSD 171417 AAB
TAFSUX
TAF AMD
KSUX 171417Z 1714/1812 31011KT P6SM OVC012
     FM171530 31007KT P6SM SKC
     FM172000 27006KT P6SM SKC
     FM172300 VRB04KT P6SM SKC
     FM180700 15006KT P6SM FEW180=

USA.gov is the U.S. government's official web portal to all federal, state and local government web resources and services.